• Join FlightAware (Why Join?)
  • Login
  • US Flag 
02:39AM EST


 

Airport Tracker/Info


-or-


 

Live Flight TrackerFlight Track Log ✈ AAY860 ✈ 19-Mar-2014 ✈ KPIE - KLEX

Flight Track Log - Related Links

Times and Time Zones

All times are in EDT time to prevent confusion due to time zone crossing. See the AAY860 flight status page for this flight to view local times or setup timezone preferences in your user account.

Time Position Orientation Groundspeed Altitude Reporting Facility
EDT Latitude Longitude Course Direction KTS MPH feet Rate Location/Type
06:59AM 27.9333 -82.7000 360° North 144 166 800  Level Tampa TRACON
06:59AM 27.9500 -82.7000 360° North 159 183 1,900 1,813 Climbing Tampa TRACON
07:00AM 28.0167 -82.6667 24° Northeast 256 295 3,700 2,286 Climbing Tampa TRACON
07:01AM 28.0833 -82.7000 336° Northwest 289 333 6,700 2,437 Climbing Tampa TRACON
07:04AM 28.2731 -82.7442 348° North 302 348 11,700 2,102 Climbing Jacksonville Center
07:05AM 28.3731 -82.7700 347° North 335 386 13,600 2,000 Climbing Jacksonville Center
07:06AM 28.4756 -82.8169 338° Northwest 372 428 15,700 2,250 Climbing Jacksonville Center
07:07AM 28.5778 -82.8783 332° Northwest 397 457 18,100 2,150 Climbing Jacksonville Center
07:08AM 28.6800 -82.9353 334° Northwest 403 464 20,000 1,600 Climbing Jacksonville Center
07:09AM 28.7758 -82.9872 335° Northwest 408 470 21,300 1,300 Climbing Jacksonville Center
07:10AM 28.8864 -83.0561 331° Northwest 427 491 22,600 1,488 Climbing Jacksonville Center
07:11AM 29.0011 -83.1275 331° Northwest 448 516 24,300 2,300 Climbing Jacksonville Center
07:12AM 29.1139 -83.1919 333° Northwest 454 522 27,200 2,622 Climbing Jacksonville Center
07:13AM 29.2222 -83.2494 335° Northwest 448 516 29,500 1,700 Climbing Jacksonville Center
07:14AM 29.3286 -83.3022 337° Northwest 430 495 30,600 1,350 Climbing Jacksonville Center
07:15AM 29.4431 -83.3622 335° Northwest 423 487 32,200 1,350 Climbing Jacksonville Center
07:16AM 29.5514 -83.4011 343° North 412 474 33,300 900 Climbing Jacksonville Center
07:17AM 29.6600 -83.4303 347° North 402 463 34,000 350 Climbing Jacksonville Center
07:18AM 29.7747 -83.4619 347° North 402 463 34,000  Level Jacksonville Center
07:19AM 29.8872 -83.4939 346° North 402 463 34,000  Level Jacksonville Center
07:20AM 30.0019 -83.5233 347° North 408 470 34,000  Level Jacksonville Center
07:21AM 30.1144 -83.5553 346° North 415 478 34,000  Level Jacksonville Center
07:22AM 30.2228 -83.5872 346° North 410 472 34,000  Level Jacksonville Center
07:23AM 30.3375 -83.6169 347° North 410 472 34,000  Level Jacksonville Center
07:24AM 30.4500 -83.6492 346° North 410 472 34,000  Level Jacksonville Center
07:25AM 30.5375 -83.6739 346° North 410 472 34,000  Level Jacksonville Center
07:26AM 30.6711 -83.7139 346° North 410 472 34,000  Level Jacksonville Center
07:27AM 30.7814 -83.7436 347° North 410 472 34,000  Level Jacksonville Center
07:28AM 30.8939 -83.7761 346° North 410 472 34,000  Level Jacksonville Center
07:29AM 31.0044 -83.8111 345° North 410 472 34,000  Level Jacksonville Center
07:30AM 31.1169 -83.8389 348° North 410 472 34,000  Level Jacksonville Center
07:31AM 31.2275 -83.8742 345° North 410 472 34,000  Level Jacksonville Center
07:32AM 31.4083 -83.9269 346° North 418 481 34,000  Level Atlanta Center
07:33AM 31.5169 -83.9608 345° North 408 470 34,000  Level Atlanta Center
07:34AM 31.6319 -83.9878 349° North 408 470 34,000  Level Atlanta Center
07:35AM 31.7486 -84.0119 350° North 415 478 34,000  Level Atlanta Center
07:36AM 31.8636 -84.0364 350° North 415 478 34,000  Level Atlanta Center
07:37AM 31.9803 -84.0608 350° North 415 478 34,000  Level Atlanta Center
07:38AM 32.0931 -84.0878 349° North 415 478 34,000  Level Atlanta Center
07:39AM 32.2078 -84.1100 351° North 415 478 34,000  Level Atlanta Center
07:40AM 32.3228 -84.1372 349° North 415 478 34,000  Level Atlanta Center
07:41AM 32.4375 -84.1644 349° North 415 478 34,000  Level Atlanta Center
07:42AM 32.5542 -84.1942 348° North 415 478 34,000  Level Atlanta Center
07:43AM 32.6794 -84.2189 351° North 415 478 34,000  Level Atlanta Center
07:44AM 32.7964 -84.2464 349° North 415 478 34,000  Level Atlanta Center
07:45AM 32.9131 -84.2789 347° North 415 478 34,000  Level Atlanta Center
07:46AM 33.0300 -84.3014 351° North 426 490 34,000  Level Atlanta Center
07:47AM 33.1489 -84.3292 349° North 432 497 34,000  Level Atlanta Center
07:48AM 33.2658 -84.3544 350° North 425 489 34,000  Level Atlanta Center
07:49AM 33.3722 -84.3797 349° North 430 495 34,000  Level Atlanta Center
07:50AM 33.4889 -84.4075 349° North 430 495 34,000  Level Atlanta Center
07:51AM 33.6078 -84.4328 350° North 430 495 34,000  Level Atlanta Center
07:52AM 33.7331 -84.4161 North 429 494 34,000  Level Atlanta Center
07:53AM 33.8586 -84.3842 12° North 443 510 34,000  Level Atlanta Center
07:54AM 33.9839 -84.3569 10° North 452 520 34,000  Level Atlanta Center
07:55AM 34.1300 -84.3172 13° North 466 536 34,000  Level Atlanta Center
07:56AM 34.2428 -84.2925 10° North 470 541 34,000  Level Atlanta Center
07:57AM 34.3700 -84.2628 11° North 470 541 34,000  Level Atlanta Center
07:58AM 34.4933 -84.2353 10° North 459 528 34,000  Level Atlanta Center
07:59AM 34.6186 -84.2131 North 459 528 34,000  Level Atlanta Center
08:00AM 34.7375 -84.2233 356° North 435 501 34,000  Level Atlanta Center
08:01AM 34.8586 -84.2336 356° North 435 501 34,000  Level Atlanta Center
08:02AM 34.9775 -84.2492 354° North 435 501 34,000  Level Atlanta Center
08:03AM 35.0964 -84.2544 358° North 430 495 34,000  Level Atlanta Center
08:04AM 35.2172 -84.2650 356° North 425 489 34,000  Level Atlanta Center
08:05AM 35.3383 -84.2731 357° North 425 489 34,000  Level Atlanta Center
08:06AM 35.4594 -84.2836 356° North 425 489 34,000  Level Atlanta Center
08:07AM 35.5803 -84.2889 358° North 425 489 34,000  Level Atlanta Center
08:08AM 35.7014 -84.2994 356° North 425 489 34,000  Level Atlanta Center
08:09AM 35.8244 -84.3078 357° North 430 495 34,000 -400 Level Atlanta Center
08:10AM 35.9453 -84.3183 356° North 430 495 33,200 -900 Descending Atlanta Center
08:11AM 36.0683 -84.3264 357° North 435 501 32,200 -1,167 Descending Atlanta Center
08:13AM 36.2422 -84.3383 357° North 443 510 30,400 -1,562 Descending Indianapolis Center
08:14AM 36.3683 -84.3472 357° North 450 518 28,400 -2,195 Descending Indianapolis Center
08:15AM 36.5122 -84.3589 356° North 454 522 25,900 -2,195 Descending Indianapolis Center
08:16AM 36.6311 -84.3683 356° North 435 501 23,900 -1,500 Descending Indianapolis Center
08:17AM 36.7489 -84.3775 356° North 428 493 22,800 -1,210 Descending Indianapolis Center
08:18AM 36.8653 -84.3853 357° North 423 487 21,400 -1,694 Descending Indianapolis Center
08:19AM 36.9783 -84.3950 356° North 414 476 19,300 -2,390 Descending Indianapolis Center
08:20AM 37.1022 -84.4056 356° North 391 450 16,500 -2,244 Descending Indianapolis Center
08:21AM 37.2094 -84.4128 357° North 388 447 14,700 -1,694 Descending Indianapolis Center
08:22AM 37.3131 -84.4208 356° North 377 434 13,000 -1,742 Descending Indianapolis Center
08:23AM 37.4144 -84.4289 356° North 370 426 11,100 -1,258 Descending Indianapolis Center
08:24AM 37.5189 -84.4369 356° North 370 426 10,400 -677 Descending Indianapolis Center
08:25AM 37.6117 -84.4483 354° North 339 390 9,700 -1,073 Descending Indianapolis Center
08:26AM 37.6953 -84.4572 355° North 310 357 8,200 -1,317 Descending Indianapolis Center
08:27AM 37.7900 -84.4678 355° North 299 344 7,000 -532 Descending Indianapolis Center
08:28AM 37.8647 -84.4750 356° North 278 320 7,100 -823 Climbing Indianapolis Center
08:29AM 37.9400 -84.4858 354° North 275 316 5,300 -1,839 Descending Indianapolis Center
08:30AM 38.0111 -84.4906 357° North 266 306 3,300 -976 Descending Indianapolis Center
08:31AM 38.0750 -84.4681 15° North 253 291 3,300  Level Indianapolis Center
08:32AM 38.1322 -84.4219 32° Northeast 249 287 3,300  Level Indianapolis Center
08:33AM 38.1694 -84.4533 326° Northwest 200 230 3,300  Level Indianapolis Center
08:34AM 38.1433 -84.4853 224° Southwest 153 176 3,300 -49 Level Indianapolis Center
08:35AM 38.1222 -84.5106 223° Southwest 129 148 3,200 -293 Descending Indianapolis Center
08:36AM 38.1039 -84.5314 222° Southwest 110 127 2,700 -484 Descending Indianapolis Center
08:37AM 38.0847 -84.5517 220° Southwest 99 114 2,200 -387 Descending Indianapolis Center
08:38AM 38.0636 -84.5769 223° Southwest 99 114 1,900 -290 Descending Indianapolis Center